ADDS METAR Data INFO
IDs: Format: Raw Decoded Include TAF

Data at: 1952 UTC 15 Dec 2017

KSSI 151853Z AUTO 26009G17KT 10SM SCT038 20/13 A3000 RMK AO2 SLP159 T02000128
KSSI 151753Z AUTO 24009KT 10SM SCT038 21/12 A3002 RMK AO2 SLP165 T02060122 10206 20089 58016
KSSI 151653Z AUTO 22008KT 10SM CLR 18/12 A3003 RMK AO2 SLP172 T01830117
KSSI 151553Z AUTO 22006KT 10SM CLR 16/09 A3005 RMK AO2 SLP177 T01610089
KSSI 151453Z AUTO 23005KT 10SM CLR 14/09 A3006 RMK AO2 SLP181 T01390089 53010
KSSI 151353Z AUTO 10SM CLR 12/09 A3005 RMK AO2 SLP177 T01220094
KSSI 151253Z AUTO 25005KT 10SM CLR 11/09 A3004 RMK AO2 SLP173 T01110089
KSSI 151153Z AUTO 24004KT 10SM CLR 09/08 A3003 RMK AO2 SLP171 T00940078 10117 20094 51006
KSSI 151053Z AUTO 25003KT 10SM SCT046 10/08 A3003 RMK AO2 SLP171 T01000083
KSSI 150953Z AUTO 26003KT 10SM SCT050 11/08 A3002 RMK AO2 SLP168 T01060083
KSSI 150853Z AUTO 24003KT 10SM CLR 11/08 A3001 RMK AO2 SLP165 T01060078 58004
KSSI 150753Z AUTO 24004KT 10SM CLR 11/07 A3002 RMK AO2 SLP167 T01060072
KSSI 150653Z AUTO 24004KT 10SM CLR 10/07 A3003 RMK AO2 SLP168 T01000072
KSSI 150553Z AUTO 25004KT 10SM CLR 09/08 A3003 RMK AO2 SLP169 T00940078 10128 20083 58003
KSSI 150453Z AUTO 00000KT 10SM CLR 09/06 A3003 RMK AO2 SLP170 T00890061 401780061
KSSI 150353Z AUTO 00000KT 10SM CLR 09/06 A3004 RMK AO2 SLP173 T00940056
KSSI 150253Z AUTO 22004KT 10SM CLR 10/06 A3004 RMK AO2 SLP173 T01000061 51014
KSSI 150153Z AUTO 00000KT 10SM CLR 10/06 A3003 RMK AO2 SLP171 T01000056
KSSI 150053Z AUTO 25003KT 10SM CLR 13/04 A3002 RMK AO2 SLP166 T01280044
KSSI 142353Z AUTO 22005KT 10SM CLR 12/05 A3000 RMK AO2 SLP159 T01220050 10178 20122 51011
KSSI 142253Z AUTO 22004KT 10SM CLR 14/05 A2998 RMK AO2 SLP154 T01390050
KSSI 142153Z AUTO 24005KT 10SM CLR 16/04 A2998 RMK AO2 SLP152 T01560044
KSSI 142053Z AUTO 23009KT 10SM CLR 17/03 A2996 RMK AO2 SLP148 T01670028 55000
KSSI 141953Z AUTO 24010KT 10SM CLR 17/02 A2995 RMK AO2 SLP144 T01720022
KSSI 141853Z AUTO 23010KT 10SM CLR 17/02 A2995 RMK AO2 SLP143 T01720022
KSSI 141753Z AUTO 23010KT 10SM CLR 17/03 A2996 RMK AO2 SLP147 T01720028 10172 20072 58017
KSSI 141653Z AUTO 25008KT 10SM CLR 16/02 A3000 RMK AO2 SLP159 T01610022
KSSI 141553Z AUTO 25010KT 10SM CLR 15/03 A3001 RMK AO2 SLP162 T01500028
KSSI 141453Z AUTO 26009KT 10SM CLR 12/04 A3001 RMK AO2 SLP164 T01220039 53010
KSSI 141353Z AUTO 25007KT 10SM CLR 10/06 A3000 RMK AO2 SLP160 T01000056
KSSI 141253Z AUTO 24007KT 10SM CLR 08/05 A2999 RMK AO2 SLP156 T00780050
KSSI 141153Z AUTO 25007KT 10SM CLR 07/04 A2998 RMK AO2 SLP154 T00720044 10072 20061 53003
KSSI 141053Z AUTO 24007KT 10SM CLR 07/04 A2997 RMK AO2 SLP150 T00670039
KSSI 140953Z AUTO 24006KT 10SM CLR 06/03 A2996 RMK AO2 SLP147 T00610028
KSSI 140853Z AUTO 27004KT 10SM CLR 07/03 A2998 RMK AO2 SLP152 T00670028 53004
KSSI 140753Z AUTO 24009KT 10SM CLR 07/02 A2997 RMK AO2 SLP151 T00720022